Time;durP1;ratioP1;P1;durP2;ratioP2;P2;SDS_P1;SDS_P2;PMS_P1;PMS_P2;Temp;Humidity;BMP_temperature;BMP_pressure;BME280_temperature;BME280_humidity;BME280_pressure;Samples;Min_cycle;Max_cycle;Signal;HPM_P1;HPM_P2
2022/08/26 00:01:45;;;;;;;3.30;2.90;;;;;;;22.22;50.43;98558.09;4935810;29;20044;-68
2022/08/26 00:04:12;;;;;;;2.95;2.75;;;;;;;22.18;50.47;98557.84;4928048;29;20074;-68
2022/08/26 00:06:40;;;;;;;3.05;2.80;;;;;;;22.14;50.66;98559.47;4935730;29;20051;-68
2022/08/26 00:09:11;;;;;;;2.33;2.13;;;;;;;22.06;50.76;98553.81;4936577;29;20488;-68
2022/08/26 00:11:41;;;;;;;3.15;2.80;;;;;;;21.99;51.15;98556.78;4936756;29;20039;-68
2022/08/26 00:14:07;;;;;;;2.85;2.65;;;;;;;21.93;51.25;98555.19;4936191;29;20054;-67
2022/08/26 00:16:34;;;;;;;2.33;2.13;;;;;;;21.91;51.32;98555.44;4935889;29;20059;-68
2022/08/26 00:19:01;;;;;;;2.20;2.00;;;;;;;21.91;51.50;98555.44;4936022;29;20047;-68
2022/08/26 00:21:27;;;;;;;2.60;2.20;;;;;;;21.90;51.57;98564.59;4936512;29;20051;-67
2022/08/26 00:23:54;;;;;;;2.20;2.00;;;;;;;21.89;51.67;98562.19;4919729;29;20275;-67
2022/08/26 00:26:21;;;;;;;2.38;2.20;;;;;;;21.90;51.81;98561.09;4936653;29;20062;-68
2022/08/26 00:28:53;;;;;;;2.30;2.10;;;;;;;21.87;51.68;98561.63;4936506;29;20040;-67
2022/08/26 00:31:20;;;;;;;1.85;1.75;;;;;;;21.82;51.87;98565.16;4934932;29;20050;-67
2022/08/26 00:33:47;;;;;;;1.90;1.80;;;;;;;21.77;52.23;98565.97;4928288;29;20148;-68
2022/08/26 00:36:15;;;;;;;1.95;1.85;;;;;;;21.77;52.29;98560.59;4936725;29;20055;-67
2022/08/26 00:38:46;;;;;;;1.60;1.50;;;;;;;21.78;52.20;98561.38;4936749;29;20048;-68
2022/08/26 00:41:13;;;;;;;1.38;1.27;;;;;;;21.79;52.22;98562.19;4936072;29;20051;-68
2022/08/26 00:43:42;;;;;;;2.50;2.33;;;;;;;21.80;51.81;98559.25;4935676;29;20052;-68
2022/08/26 00:46:18;;;;;;;2.60;2.40;;;;;;;21.71;51.97;98556.28;4935660;29;20059;-68
2022/08/26 00:48:48;;;;;;;2.50;2.30;;;;;;;21.65;52.03;98556.56;4935520;29;20143;-68
2022/08/26 00:51:22;;;;;;;3.42;3.13;;;;;;;21.60;52.04;98551.19;4935676;29;20055;-68
2022/08/26 00:53:57;;;;;;;3.85;3.53;;;;;;;21.51;52.26;98551.75;4935583;29;20047;-67
2022/08/26 00:56:34;;;;;;;3.83;3.53;;;;;;;21.45;52.43;98546.63;4935269;29;20079;-66
2022/08/26 00:59:05;;;;;;;3.72;3.42;;;;;;;21.39;52.87;98550.38;4918758;29;20091;-67
2022/08/26 01:01:32;;;;;;;4.00;3.60;;;;;;;21.34;52.70;98547.69;4935368;29;20488;-66
2022/08/26 01:03:59;;;;;;;4.25;3.85;;;;;;;21.31;52.94;98548.19;4925995;29;20563;-67
2022/08/26 01:06:27;;;;;;;4.10;3.70;;;;;;;21.27;52.87;98547.94;4935053;29;20510;-67
2022/08/26 01:08:54;;;;;;;3.40;3.10;;;;;;;21.25;53.12;98550.09;4935381;29;20475;-67
2022/08/26 01:11:21;;;;;;;3.70;3.35;;;;;;;21.23;53.31;98557.63;4935425;29;20122;-67
2022/08/26 01:13:53;;;;;;;4.18;3.72;;;;;;;21.18;53.29;98553.03;4936294;29;20054;-68
2022/08/26 01:16:21;;;;;;;4.10;3.80;;;;;;;21.12;53.59;98547.94;4936106;29;20489;-68
2022/08/26 01:18:47;;;;;;;4.13;3.83;;;;;;;21.06;53.69;98549.78;4936208;29;20055;-68
2022/08/26 01:21:17;;;;;;;3.80;3.50;;;;;;;21.02;53.62;98554.09;4936496;29;20063;-68
2022/08/26 01:23:48;;;;;;;4.13;3.80;;;;;;;21.00;53.92;98553.56;4935525;29;20131;-68
2022/08/26 01:26:19;;;;;;;4.15;3.75;;;;;;;20.96;53.88;98555.97;4935631;29;20136;-68
2022/08/26 01:28:49;;;;;;;4.47;4.07;;;;;;;20.92;53.86;98552.19;4917939;29;20159;-68
2022/08/26 01:31:22;;;;;;;3.83;3.53;;;;;;;20.88;54.21;98559.19;4918175;29;20052;-68
2022/08/26 01:34:13;;;;;;;3.70;3.40;;;;;;;20.85;54.23;98553.53;4909541;29;20052;-68
2022/08/26 01:36:40;;;;;;;2.85;2.55;;;;;;;20.81;54.73;98557.81;4917332;29;20484;-67
2022/08/26 01:39:08;;;;;;;2.45;2.25;;;;;;;20.78;54.50;98562.66;4917605;29;20556;-67
2022/08/26 01:41:37;;;;;;;2.90;2.63;;;;;;;20.71;54.66;98561.28;4918129;29;20115;-67
2022/08/26 01:44:07;;;;;;;2.67;2.47;;;;;;;20.63;55.00;98567.97;4934869;29;20051;-67
2022/08/26 01:46:35;;;;;;;2.45;2.25;;;;;;;20.63;54.98;98556.44;4917579;29;20063;-67
2022/08/26 01:49:05;;;;;;;2.53;2.33;;;;;;;20.60;54.92;98567.69;4917478;29;20456;-67
2022/08/26 01:51:35;;;;;;;2.25;2.05;;;;;;;20.57;55.14;98558.28;4934593;29;20052;-68
2022/08/26 01:54:06;;;;;;;2.45;2.25;;;;;;;20.63;55.18;98570.66;4917942;29;20131;-67
2022/08/26 01:56:38;;;;;;;3.30;3.05;;;;;;;20.65;54.83;98570.38;4934370;29;20048;-68
2022/08/26 01:59:10;;;;;;;3.20;3.00;;;;;;;20.66;54.98;98567.44;4934493;29;20138;-67
2022/08/26 02:01:37;;;;;;;3.95;3.65;;;;;;;20.66;54.65;98574.72;4917325;29;20075;-67
2022/08/26 02:04:16;;;;;;;4.75;4.35;;;;;;;20.65;55.01;98573.06;4925131;29;20040;-68
2022/08/26 02:06:43;;;;;;;3.97;3.67;;;;;;;20.62;54.93;98570.94;4934199;29;20054;-68
2022/08/26 02:09:11;;;;;;;4.20;3.90;;;;;;;20.61;55.17;98580.03;4917322;29;20062;-68
2022/08/26 02:11:40;;;;;;;3.20;2.90;;;;;;;20.57;55.16;98585.13;4935020;29;20051;-68
2022/08/26 02:14:20;;;;;;;3.17;2.92;;;;;;;20.52;55.24;98575.16;4934524;29;20044;-68
2022/08/26 02:16:49;;;;;;;2.80;2.60;;;;;;;20.50;55.28;98581.91;4917255;29;20056;-68
2022/08/26 02:19:20;;;;;;;2.78;2.58;;;;;;;20.45;55.46;98576.44;4934156;29;20050;-68
2022/08/26 02:21:50;;;;;;;2.80;2.53;;;;;;;20.41;55.75;98570.81;4917885;29;20062;-68
2022/08/26 02:24:23;;;;;;;2.83;2.63;;;;;;;20.44;55.51;98572.97;4917403;29;20051;-68
2022/08/26 02:26:53;;;;;;;2.60;2.40;;;;;;;20.44;55.92;98581.00;4934784;29;20044;-68
2022/08/26 02:29:25;;;;;;;2.78;2.33;;;;;;;20.46;55.97;98586.13;4935128;29;20288;-68
2022/08/26 02:31:54;;;;;;;3.45;3.15;;;;;;;20.43;55.80;98582.09;4917328;29;20115;-68
2022/08/26 02:34:26;;;;;;;3.97;3.58;;;;;;;20.39;55.94;98577.50;4925994;29;20047;-68
2022/08/26 02:37:00;;;;;;;3.80;3.38;;;;;;;20.36;55.85;98581.53;4936565;29;20052;-68
2022/08/26 02:39:28;;;;;;;3.60;3.30;;;;;;;20.34;56.29;98580.97;4936336;29;20082;-68
2022/08/26 02:41:56;;;;;;;3.67;3.38;;;;;;;20.32;56.23;98583.09;4920373;29;20055;-68
2022/08/26 02:44:22;;;;;;;3.40;3.10;;;;;;;20.30;56.05;98590.63;4937473;29;20050;-70
2022/08/26 02:46:51;;;;;;;2.63;2.42;;;;;;;20.25;56.62;98594.09;4938124;29;20557;-68
2022/08/26 02:49:20;;;;;;;2.40;2.20;;;;;;;20.20;56.71;98595.94;4938632;29;20103;-68
2022/08/26 02:51:48;;;;;;;2.90;2.70;;;;;;;20.17;56.33;98591.09;4938500;29;20047;-68
2022/08/26 02:54:16;;;;;;;3.15;2.95;;;;;;;20.16;56.92;98587.59;4937401;29;20488;-68
2022/08/26 02:56:44;;;;;;;3.22;2.92;;;;;;;20.15;56.96;98587.84;4920151;29;20075;-68
2022/08/26 02:59:14;;;;;;;2.60;2.40;;;;;;;20.13;56.77;98585.44;4937139;29;20480;-68
2022/08/26 03:01:41;;;;;;;3.30;3.10;;;;;;;20.09;56.64;98588.91;4937234;29;20138;-68
2022/08/26 03:04:10;;;;;;;2.67;2.47;;;;;;;20.02;56.97;98589.13;4927914;29;20130;-68
2022/08/26 03:06:38;;;;;;;3.10;2.90;;;;;;;19.99;56.91;98584.28;4936949;29;20044;-68
2022/08/26 03:09:06;;;;;;;2.97;2.78;;;;;;;19.97;57.24;98583.75;4936842;29;20051;-68
2022/08/26 03:11:34;;;;;;;2.95;2.70;;;;;;;19.95;57.21;98586.66;4919908;29;20507;-68
2022/08/26 03:14:02;;;;;;;2.58;2.38;;;;;;;19.94;57.66;98577.00;4937175;29;20126;-68
2022/08/26 03:16:36;;;;;;;2.55;2.35;;;;;;;19.98;57.59;98577.28;4936685;29;20046;-68
2022/08/26 03:19:05;;;;;;;2.80;2.60;;;;;;;20.00;57.32;98583.19;4936672;29;20488;-68
2022/08/26 03:21:34;;;;;;;2.63;2.42;;;;;;;20.00;57.44;98580.50;4920257;29;20056;-68
2022/08/26 03:24:02;;;;;;;2.60;2.40;;;;;;;19.99;57.53;98586.94;4936775;29;20047;-68
2022/08/26 03:26:29;;;;;;;1.80;1.70;;;;;;;20.00;57.23;98583.19;4936609;29;20408;-68
2022/08/26 03:31:42;;;;;;;6.38;3.20;;;;;;;19.91;57.39;98582.88;4937071;29;20117;-68
2022/08/26 03:34:09;;;;;;;3.30;2.95;;;;;;;19.85;57.77;98581.25;4925519;29;20116;-68
2022/08/26 03:36:37;;;;;;;3.55;3.25;;;;;;;19.82;57.71;98576.38;4915529;29;20039;-68
2022/08/26 03:39:04;;;;;;;3.22;3.03;;;;;;;19.79;57.92;98580.38;4936430;29;20047;-68
2022/08/26 03:41:33;;;;;;;2.75;2.55;;;;;;;19.79;57.72;98572.34;4919753;29;20463;-68
2022/08/26 03:44:01;;;;;;;3.50;3.20;;;;;;;19.75;57.41;98562.38;4936425;29;20484;-68
2022/08/26 03:46:31;;;;;;;3.90;3.15;;;;;;;19.70;57.80;98567.72;4919067;29;20047;-68
2022/08/26 03:48:59;;;;;;;3.70;3.40;;;;;;;19.67;57.83;98569.03;4936070;29;20083;-68
2022/08/26 03:51:27;;;;;;;3.78;3.47;;;;;;;19.65;58.20;98573.84;4936290;29;20048;-68
2022/08/26 03:53:54;;;;;;;4.75;4.07;;;;;;;19.62;57.93;98569.00;4935550;29;20492;-68
2022/08/26 03:56:22;;;;;;;4.60;4.20;;;;;;;19.58;58.37;98573.22;4919488;29;20110;-68
2022/08/26 03:58:49;;;;;;;4.15;3.80;;;;;;;19.55;57.91;98573.72;4936512;29;20047;-68
2022/08/26 04:01:16;;;;;;;5.70;4.97;;;;;;;19.50;58.20;98568.34;5354371;23;20061;-69
2022/08/26 04:03:56;;;;;;;4.60;4.20;;;;;;;19.48;58.49;98573.97;4916423;29;20083;-67
2022/08/26 04:06:38;;;;;;;4.53;4.13;;;;;;;19.45;58.37;98582.50;4911681;29;20044;-67
2022/08/26 04:09:18;;;;;;;3.95;3.55;;;;;;;19.45;58.58;98584.38;4917041;29;20044;-67
2022/08/26 04:11:47;;;;;;;4.40;4.00;;;;;;;19.44;58.23;98583.59;4899801;29;20107;-68
2022/08/26 04:14:22;;;;;;;3.78;3.40;;;;;;;19.45;58.60;98581.72;4901953;29;20441;-67
2022/08/26 04:16:50;;;;;;;3.28;3.08;;;;;;;19.49;58.87;98580.94;4918210;29;20127;-67
2022/08/26 04:19:18;;;;;;;3.60;3.30;;;;;;;19.50;58.56;98574.50;4917518;29;20044;-67
2022/08/26 04:21:46;;;;;;;4.15;3.75;;;;;;;19.49;58.32;98577.44;4916873;29;20127;-68
2022/08/26 04:24:15;;;;;;;4.72;4.32;;;;;;;19.46;58.47;98570.72;4916725;29;20108;-68
2022/08/26 04:26:43;;;;;;;4.18;3.88;;;;;;;19.42;58.17;98568.81;4916379;29;20048;-68
2022/08/26 04:29:14;;;;;;;4.68;4.22;;;;;;;19.37;58.61;98574.94;4916455;29;20056;-68
2022/08/26 04:31:41;;;;;;;4.47;4.07;;;;;;;19.37;58.56;98576.81;4899486;29;20052;-67
2022/08/26 04:34:08;;;;;;;3.95;3.65;;;;;;;19.36;58.94;98575.22;4924276;29;20632;-67
2022/08/26 04:36:36;;;;;;;4.03;3.72;;;;;;;19.38;58.90;98578.44;4916191;29;20072;-68
2022/08/26 04:39:03;;;;;;;4.88;4.43;;;;;;;19.38;58.83;98576.56;4916391;29;20062;-68
2022/08/26 04:41:30;;;;;;;4.78;4.38;;;;;;;19.40;58.73;98582.47;4899682;29;20405;-68
2022/08/26 04:43:57;;;;;;;4.63;4.10;;;;;;;19.39;58.59;98583.56;4917246;29;20048;-68
2022/08/26 04:46:24;;;;;;;4.70;4.30;;;;;;;19.37;58.64;98579.50;4917111;29;20055;-67
2022/08/26 04:48:52;;;;;;;5.00;4.43;;;;;;;19.29;58.98;98573.53;4916822;29;20052;-68
2022/08/26 04:51:22;;;;;;;5.43;4.70;;;;;;;19.25;59.13;98574.28;4916332;29;20047;-68
2022/08/26 04:53:49;;;;;;;5.20;4.70;;;;;;;19.24;58.85;98570.00;4916682;29;20040;-67
2022/08/26 04:56:15;;;;;;;4.47;4.07;;;;;;;19.24;59.29;98578.84;4899036;29;20039;-67
2022/08/26 04:58:42;;;;;;;4.35;3.95;;;;;;;19.29;59.30;98578.88;4915496;29;20083;-67
2022/08/26 05:01:09;;;;;;;4.35;3.60;;;;;;;19.35;58.93;98576.25;4916423;29;20086;-67
2022/08/26 05:03:35;;;;;;;4.15;3.85;;;;;;;19.41;58.74;98583.28;4923423;29;20091;-67
2022/08/26 05:06:04;;;;;;;4.22;3.83;;;;;;;19.43;58.97;98583.81;4917716;29;20052;-67
2022/08/26 05:08:30;;;;;;;3.92;3.63;;;;;;;19.47;58.83;98588.44;4917000;29;20052;-67
2022/08/26 05:10:57;;;;;;;3.53;3.22;;;;;;;19.54;58.92;98593.56;4917390;29;20040;-67
2022/08/26 05:13:26;;;;;;;2.70;2.50;;;;;;;19.61;58.94;98594.22;4917254;29;20131;-68
2022/08/26 05:15:53;;;;;;;3.20;2.85;;;;;;;19.68;58.54;98597.50;4899545;29;20040;-67
2022/08/26 05:18:26;;;;;;;2.90;2.70;;;;;;;19.74;58.21;98595.63;4898867;29;20055;-68
2022/08/26 05:20:53;;;;;;;3.05;2.75;;;;;;;19.80;58.19;98600.00;4916205;29;20043;-68
2022/08/26 05:23:22;;;;;;;3.65;3.35;;;;;;;19.86;58.22;98596.25;4916089;29;20052;-68
2022/08/26 05:25:51;;;;;;;3.08;2.78;;;;;;;19.89;58.04;98601.13;4916332;29;20048;-68
2022/08/26 05:28:26;;;;;;;3.33;3.03;;;;;;;19.97;57.99;98606.00;4899616;29;20155;-68
2022/08/26 05:30:53;;;;;;;2.38;2.17;;;;;;;20.08;58.27;98609.53;4917045;29;20048;-68
2022/08/26 05:33:20;;;;;;;2.15;2.05;;;;;;;20.16;57.84;98603.69;4924342;29;20147;-68
2022/08/26 05:35:47;;;;;;;2.60;2.40;;;;;;;20.23;57.56;98611.53;4933025;29;20403;-67
2022/08/26 05:38:17;;;;;;;4.05;3.60;;;;;;;20.31;57.07;98611.03;4936343;29;20054;-68
2022/08/26 05:40:47;;;;;;;3.70;3.40;;;;;;;20.35;57.23;98608.63;4936204;29;20051;-68
2022/08/26 05:43:19;;;;;;;3.95;3.53;;;;;;;20.37;56.83;98609.16;4918681;29;20052;-68
2022/08/26 05:45:48;;;;;;;4.78;4.15;;;;;;;20.36;57.30;98611.03;4934815;29;20048;-68
2022/08/26 05:48:17;;;;;;;3.45;3.15;;;;;;;20.42;56.97;98603.84;4934560;29;20043;-67
2022/08/26 05:50:51;;;;;;;2.95;2.75;;;;;;;20.52;57.02;98614.66;4934914;29;20126;-67
2022/08/26 05:53:20;;;;;;;2.67;2.47;;;;;;;20.60;57.04;98610.66;4935195;29;20047;-68
2022/08/26 05:55:49;;;;;;;2.40;2.20;;;;;;;20.69;56.87;98615.25;4934771;29;20048;-68
2022/08/26 05:58:19;;;;;;;2.30;2.05;;;;;;;20.82;56.38;98613.13;4934973;29;20055;-68
2022/08/26 06:00:57;;;;;;;3.65;2.78;;;;;;;20.89;56.33;98608.34;4935640;29;20043;-68
2022/08/26 06:03:24;;;;;;;4.05;3.65;;;;;;;20.96;55.88;98616.97;4912269;29;20136;-68
2022/08/26 06:05:50;;;;;;;5.63;5.13;;;;;;;21.00;55.77;98621.53;4915668;29;20044;-68
2022/08/26 06:08:19;;;;;;;3.60;3.30;;;;;;;21.08;55.75;98619.41;4901967;29;20052;-68
2022/08/26 06:10:58;;;;;;;4.10;3.80;;;;;;;21.16;55.40;98625.06;4937274;29;20130;-68
2022/08/26 06:13:26;;;;;;;3.10;2.80;;;;;;;21.26;55.45;98625.06;4938173;29;20047;-68
2022/08/26 06:15:58;;;;;;;3.47;2.83;;;;;;;21.39;55.42;98625.66;4938053;29;20040;-68
2022/08/26 06:18:33;;;;;;;2.40;2.20;;;;;;;21.48;55.19;98624.88;4937972;29;20058;-68
2022/08/26 06:21:12;;;;;;;3.92;3.60;;;;;;;21.57;54.62;98619.78;4937937;29;20047;-68
2022/08/26 06:26:27;;;;;;;2.60;2.40;;;;;;;21.76;54.33;98620.88;4937710;29;20086;-68
2022/08/26 06:28:54;;;;;;;2.40;2.20;;;;;;;21.87;54.12;98618.94;4905056;29;20523;-68
2022/08/26 06:31:22;;;;;;;2.20;2.05;;;;;;;22.00;54.21;98620.28;4937648;29;20043;-68
2022/08/26 06:33:50;;;;;;;2.75;2.50;;;;;;;22.12;53.55;98620.00;4929492;29;20054;-68
2022/08/26 06:36:19;;;;;;;2.22;2.10;;;;;;;22.24;53.72;98623.22;4920698;29;20046;-68
2022/08/26 06:38:47;;;;;;;1.80;1.70;;;;;;;22.35;53.09;98627.53;4937573;29;20419;-68
2022/08/26 06:41:16;;;;;;;5.78;3.53;;;;;;;22.47;52.77;98624.53;4937453;29;20054;-68
2022/08/26 06:43:43;;;;;;;4.25;3.90;;;;;;;22.54;52.71;98619.66;4920278;29;20047;-68
2022/08/26 06:46:12;;;;;;;5.07;4.57;;;;;;;22.61;52.14;98619.34;4937082;29;20184;-67
2022/08/26 06:48:39;;;;;;;5.55;4.95;;;;;;;22.61;51.93;98619.34;4937190;29;20055;-68
2022/08/26 06:51:10;;;;;;;5.82;5.32;;;;;;;22.62;51.74;98623.69;4937215;29;20106;-67
2022/08/26 06:53:38;;;;;;;6.10;5.50;;;;;;;22.66;51.64;98619.34;4937212;29;20080;-67
2022/08/26 06:56:09;;;;;;;5.72;4.97;;;;;;;22.73;51.41;98623.31;4919736;29;20058;-68
2022/08/26 06:58:37;;;;;;;4.32;3.92;;;;;;;22.83;51.65;98616.31;4937280;29;20051;-68
2022/08/26 07:01:28;;;;;;;3.40;3.10;;;;;;;22.99;51.60;98615.16;4920344;29;20047;-67
2022/08/26 07:03:58;;;;;;;3.95;3.58;;;;;;;23.14;50.98;98611.56;4929253;29;20047;-68
2022/08/26 07:06:27;;;;;;;3.35;2.75;;;;;;;23.28;50.98;98609.88;4936786;29;20128;-68
2022/08/26 07:09:00;;;;;;;3.58;3.28;;;;;;;23.42;50.67;98615.44;4920006;29;20055;-68
2022/08/26 07:11:29;;;;;;;2.92;2.67;;;;;;;23.53;50.50;98608.88;4936947;29;20102;-68
2022/08/26 07:13:57;;;;;;;3.95;3.42;;;;;;;23.65;50.34;98613.91;4937043;29;20055;-68
2022/08/26 07:16:27;;;;;;;4.18;3.47;;;;;;;23.78;50.02;98613.28;4936680;29;20044;-68
2022/08/26 07:18:55;;;;;;;6.80;4.68;;;;;;;23.89;49.30;98609.41;4936809;29;20287;-68
2022/08/26 07:21:23;;;;;;;6.97;5.05;;;;;;;23.96;49.24;98614.47;4935850;29;20453;-68
2022/08/26 07:23:51;;;;;;;6.55;5.38;;;;;;;24.07;49.16;98615.16;4919766;29;20066;-68
2022/08/26 07:26:26;;;;;;;4.37;3.93;;;;;;;24.20;49.02;98609.09;4936528;29;20382;-68
2022/08/26 07:28:55;;;;;;;4.80;3.58;;;;;;;24.33;48.49;98604.91;4936718;29;20630;-68
2022/08/26 07:31:24;;;;;;;3.95;3.47;;;;;;;24.42;48.40;98614.03;4937064;29;20044;-68
2022/08/26 07:33:51;;;;;;;3.30;2.63;;;;;;;24.52;48.28;98613.09;4910937;29;20054;-68
2022/08/26 07:36:19;;;;;;;2.25;2.05;;;;;;;24.64;47.82;98610.78;4936125;29;20043;-68
2022/08/26 07:38:47;;;;;;;2.55;2.05;;;;;;;24.78;47.78;98609.00;4919644;29;20495;-68
2022/08/26 07:41:16;;;;;;;4.05;3.67;;;;;;;24.90;47.32;98601.28;4936500;29;20052;-68
2022/08/26 07:43:44;;;;;;;3.78;3.47;;;;;;;25.03;47.25;98613.25;4936753;29;20055;-68
2022/08/26 07:46:17;;;;;;;5.40;4.90;;;;;;;25.17;46.79;98611.44;4936349;29;20043;-68
2022/08/26 07:48:47;;;;;;;4.60;4.20;;;;;;;25.25;46.36;98606.47;4904573;29;20060;-69
2022/08/26 07:51:16;;;;;;;4.43;3.92;;;;;;;25.34;46.62;98610.94;4919391;29;20129;-68
2022/08/26 07:53:44;;;;;;;5.28;4.07;;;;;;;25.43;46.01;98609.19;4936306;29;20040;-68
2022/08/26 07:56:13;;;;;;;5.18;4.28;;;;;;;25.49;46.10;98611.81;4936003;29;20040;-68
2022/08/26 07:58:40;;;;;;;4.57;4.00;;;;;;;25.60;45.80;98608.63;4935981;29;20048;-68
2022/08/26 08:01:08;;;;;;;4.85;3.85;;;;;;;25.73;45.90;98612.50;4935997;29;20047;-68
2022/08/26 08:03:34;;;;;;;4.00;3.60;;;;;;;25.80;45.25;98604.00;4928878;29;20065;-68
2022/08/26 08:06:01;;;;;;;4.18;3.75;;;;;;;25.85;45.31;98610.16;4918245;29;20048;-68
2022/08/26 08:08:27;;;;;;;4.93;4.53;;;;;;;25.93;44.95;98608.66;4935941;29;20048;-68
2022/08/26 08:10:55;;;;;;;4.45;4.05;;;;;;;26.00;44.54;98602.84;4935877;29;20059;-68
2022/08/26 08:13:23;;;;;;;3.38;3.10;;;;;;;26.09;45.11;98609.19;4935808;29;20044;-68
2022/08/26 08:15:49;;;;;;;2.70;2.50;;;;;;;26.26;44.38;98600.47;4935679;29;20044;-68
2022/08/26 08:18:16;;;;;;;2.75;2.17;;;;;;;26.40;44.56;98595.84;4935558;29;20094;-68
2022/08/26 08:20:46;;;;;;;3.10;2.90;;;;;;;26.50;43.84;98601.13;4935719;29;20043;-68
2022/08/26 08:23:31;;;;;;;4.20;3.90;;;;;;;26.57;43.75;98593.34;4935865;29;20095;-68
2022/08/26 08:26:06;;;;;;;4.18;3.78;;;;;;;26.62;43.20;98598.69;4935615;29;20047;-68
2022/08/26 08:28:35;;;;;;;3.70;3.40;;;;;;;26.72;43.48;98602.28;4935538;29;20122;-68
2022/08/26 08:31:02;;;;;;;4.22;3.83;;;;;;;26.81;43.40;98595.03;4935471;29;20052;-68
2022/08/26 08:33:32;;;;;;;2.92;2.70;;;;;;;26.92;43.38;98593.72;4913278;29;20465;-68
2022/08/26 08:35:59;;;;;;;3.30;3.00;;;;;;;27.04;42.95;98590.47;4918116;29;20048;-67
2022/08/26 08:38:26;;;;;;;2.75;2.55;;;;;;;27.15;42.77;98591.88;4935765;29;20047;-67
2022/08/26 08:40:52;;;;;;;3.92;3.60;;;;;;;27.25;42.51;98588.13;4935382;29;20050;-67
2022/08/26 08:43:37;;;;;;;4.50;3.63;;;;;;;27.34;42.44;98583.56;4935280;29;20048;-67
2022/08/26 08:46:11;;;;;;;3.53;3.22;;;;;;;27.46;42.38;98591.94;4935706;29;20047;-67
2022/08/26 08:48:42;;;;;;;2.75;2.55;;;;;;;27.57;42.25;98587.88;4935098;29;20484;-69
2022/08/26 08:51:26;;;;;;;2.70;2.50;;;;;;;27.70;42.29;98588.13;4935205;29;20061;-67
2022/08/26 08:53:54;;;;;;;1.85;1.75;;;;;;;27.78;41.77;98579.25;4918165;29;20115;-67
2022/08/26 08:56:51;;;;;;;1.92;1.73;;;;;;;27.89;41.73;98580.59;4934993;29;20063;-67
2022/08/26 08:59:24;;;;;;;1.73;1.63;;;;;;;28.02;41.12;98578.91;4935143;29;20054;-67
2022/08/26 09:02:19;;;;;;;1.98;1.88;;;;;;;28.13;41.22;98577.53;4934817;29;20062;-67
2022/08/26 09:05:05;;;;;;;2.90;2.70;;;;;;;28.25;40.99;98575.00;4927214;29;20057;-67
2022/08/26 09:07:39;;;;;;;2.45;2.25;;;;;;;28.35;40.53;98573.91;4934779;29;20131;-67
2022/08/26 09:10:27;;;;;;;3.25;2.88;;;;;;;28.42;40.35;98571.56;4935129;29;20044;-67
2022/08/26 09:12:53;;;;;;;3.88;3.58;;;;;;;28.42;40.24;98566.13;4917839;29;20058;-67
2022/08/26 09:15:30;;;;;;;3.90;3.60;;;;;;;28.48;39.83;98577.66;4918205;29;20048;-67
2022/08/26 09:18:15;;;;;;;3.97;3.65;;;;;;;28.52;39.75;98575.91;4934335;29;20043;-67
2022/08/26 09:21:08;;;;;;;3.83;3.50;;;;;;;28.59;39.87;98576.25;4918122;29;20480;-68
2022/08/26 09:23:37;;;;;;;4.88;4.47;;;;;;;28.70;39.89;98572.13;4934729;29;20047;-67
2022/08/26 09:26:21;;;;;;;3.78;3.47;;;;;;;28.85;39.51;98576.28;4917466;29;20059;-68
2022/08/26 09:29:01;;;;;;;3.15;2.95;;;;;;;28.99;39.42;98568.03;4918815;29;20051;-68
2022/08/26 09:31:34;;;;;;;3.08;2.85;;;;;;;29.12;38.85;98567.06;4917865;29;20044;-68
2022/08/26 09:34:06;;;;;;;3.20;3.00;;;;;;;29.22;38.56;98560.47;4926417;29;20044;-68
2022/08/26 09:36:39;;;;;;;3.65;3.15;;;;;;;29.36;38.39;98572.00;4934323;29;20047;-68
2022/08/26 09:39:27;;;;;;;3.00;2.78;;;;;;;29.50;38.24;98569.91;4934753;29;20076;-68
2022/08/26 09:42:11;;;;;;;6.53;3.90;;;;;;;29.59;37.56;98551.63;4934497;29;20044;-68
2022/08/26 09:45:02;;;;;;;4.45;4.05;;;;;;;29.56;37.76;98556.94;4918323;29;20146;-68
2022/08/26 09:47:31;;;;;;;4.68;3.72;;;;;;;29.61;37.35;98554.06;4921312;29;20047;-68
2022/08/26 09:50:07;;;;;;;3.92;3.63;;;;;;;29.61;37.09;98554.06;4938427;29;20128;-68
2022/08/26 09:52:35;;;;;;;3.33;3.08;;;;;;;29.70;37.66;98548.59;4921325;29;20079;-67
2022/08/26 09:55:13;;;;;;;3.17;2.95;;;;;;;29.84;37.17;98541.00;4938333;29;20103;-68
2022/08/26 09:57:59;;;;;;;3.75;3.45;;;;;;;29.90;36.24;98538.91;4937902;29;20543;-68
2022/08/26 10:00:38;;;;;;;3.83;3.53;;;;;;;29.99;36.09;98532.28;4922700;29;20511;-68
2022/08/26 10:03:09;;;;;;;3.80;3.40;;;;;;;30.04;36.11;98531.31;4934866;29;20048;-68
2022/08/26 10:05:53;;;;;;;4.32;3.92;;;;;;;30.11;35.29;98526.16;4933966;29;20143;-68
2022/08/26 10:08:35;;;;;;;3.30;3.00;;;;;;;30.20;35.86;98515.22;4937981;29;20046;-68
2022/08/26 10:11:09;;;;;;;3.28;2.97;;;;;;;30.34;35.72;98521.25;4938220;29;20055;-68
2022/08/26 10:13:41;;;;;;;3.30;3.03;;;;;;;30.46;34.94;98513.16;4938037;29;20048;-68
2022/08/26 10:16:16;;;;;;;4.40;3.30;;;;;;;30.61;34.79;98511.75;4938304;29;20488;-68
2022/08/26 10:19:06;;;;;;;3.45;3.15;;;;;;;30.76;34.34;98515.88;4920842;29;20546;-68
2022/08/26 10:21:37;;;;;;;3.47;3.17;;;;;;;30.82;34.25;98506.34;4937885;29;20047;-68
2022/08/26 10:24:07;;;;;;;3.70;3.30;;;;;;;30.88;34.05;98501.50;4920828;29;20062;-68
2022/08/26 10:26:56;;;;;;;3.42;3.13;;;;;;;31.06;33.77;98489.28;4937496;29;20043;-68
2022/08/26 10:29:36;;;;;;;3.80;3.42;;;;;;;31.33;33.33;98477.78;4937919;29;20059;-68
2022/08/26 10:32:12;;;;;;;4.30;3.40;;;;;;;31.53;32.99;98481.59;4937380;29;20054;-68
2022/08/26 10:34:41;;;;;;;3.78;3.47;;;;;;;31.64;33.09;98481.97;4929732;29;20051;-68
2022/08/26 10:37:19;;;;;;;6.00;4.07;;;;;;;31.71;32.66;98473.97;4937336;29;20047;-68
2022/08/26 10:40:01;;;;;;;3.88;3.58;;;;;;;31.80;32.67;98469.22;4904933;29;20102;-68
2022/08/26 10:42:50;;;;;;;3.88;3.58;;;;;;;31.92;32.55;98464.91;4937476;29;20507;-68
2022/08/26 10:45:20;;;;;;;3.80;3.45;;;;;;;32.02;32.40;98469.94;4937636;29;20496;-68
2022/08/26 10:48:03;;;;;;;3.58;3.28;;;;;;;32.15;32.26;98463.31;4920292;29;20044;-68
2022/08/26 10:50:40;;;;;;;3.55;3.35;;;;;;;32.24;31.91;98458.50;4937519;29;20052;-68
2022/08/26 10:53:15;;;;;;;3.65;3.35;;;;;;;32.20;32.08;98462.28;4937534;29;20500;-68
2022/08/26 10:55:50;;;;;;;3.60;3.30;;;;;;;32.02;31.77;98464.47;4936925;29;20420;-68
2022/08/26 10:58:45;;;;;;;3.60;3.30;;;;;;;31.80;31.94;98461.03;4936590;29;20551;-68
2022/08/26 11:04:12;;;;;;;3.50;3.20;;;;;;;31.52;32.20;98454.63;4928820;29;20047;-68
2022/08/26 11:06:39;;;;;;;3.47;3.00;;;;;;;31.52;31.50;98458.16;4937178;29;20055;-68
2022/08/26 11:09:07;;;;;;;3.90;3.08;;;;;;;31.60;31.67;98458.38;4937186;29;20052;-68
2022/08/26 11:11:40;;;;;;;3.30;3.00;;;;;;;31.66;31.34;98452.34;4937160;29;20050;-68
2022/08/26 11:14:07;;;;;;;3.42;3.10;;;;;;;31.70;31.86;98447.81;4920051;29;20052;-68
2022/08/26 11:16:45;;;;;;;3.90;2.90;;;;;;;31.69;31.46;98448.16;4937003;29;20496;-69
2022/08/26 11:19:37;;;;;;;5.60;4.00;;;;;;;31.63;30.78;98444.84;4937320;29;20051;-69
2022/08/26 11:22:37;;;;;;;3.63;3.33;;;;;;;31.48;31.01;98457.25;4937889;29;20051;-69
2022/08/26 11:25:24;;;;;;;3.08;2.88;;;;;;;31.40;31.31;98449.94;4937147;29;20058;-68
2022/08/26 11:27:58;;;;;;;;;;;;;;;31.32;30.92;98445.38;4920028;29;20047;-68
2022/08/26 11:30:38;;;;;;;3.50;3.20;;;;;;;31.25;31.36;98454.06;4938118;29;19960;-69
2022/08/26 11:33:06;;;;;;;3.70;3.40;;;;;;;31.19;31.26;98451.88;4916475;29;20488;-68
2022/08/26 11:35:33;;;;;;;3.35;3.05;;;;;;;31.14;31.62;98443.91;4931893;29;20075;-68
2022/08/26 11:38:15;;;;;;;3.80;3.42;;;;;;;31.05;31.25;98439.34;4919849;29;20075;-68
2022/08/26 11:40:44;;;;;;;3.53;3.22;;;;;;;30.95;31.72;98434.31;4936763;29;20583;-69
2022/08/26 11:43:22;;;;;;;3.60;3.30;;;;;;;30.77;32.71;98438.34;4903902;29;20142;-69
2022/08/26 11:46:05;;;;;;;4.03;3.72;;;;;;;30.66;32.87;98443.38;4919281;29;20508;-68
2022/08/26 11:48:40;;;;;;;4.70;4.05;;;;;;;30.61;32.99;98435.38;4936317;29;20102;-68
2022/08/26 11:51:10;;;;;;;4.50;4.10;;;;;;;30.68;32.98;98435.66;4919355;29;20058;-68
2022/08/26 11:53:41;;;;;;;4.40;3.65;;;;;;;30.81;33.49;98436.53;4919730;29;20044;-69
2022/08/26 11:56:11;;;;;;;4.40;4.03;;;;;;;30.99;33.15;98434.44;4919464;29;20039;-69
2022/08/26 11:58:42;;;;;;;6.32;4.15;;;;;;;31.21;32.85;98434.03;4936441;29;20043;-69
2022/08/26 12:01:26;;;;;;;6.25;4.53;;;;;;;31.46;32.92;98437.66;4936180;29;20044;-68
2022/08/26 12:03:58;;;;;;;4.88;4.40;;;;;;;31.65;32.75;98430.84;4926175;29;20066;-68